createdAt,value
2024-01-06T00:00:30.981Z,94111.31
2024-01-06T00:03:04.020Z,94113.84
2024-01-06T00:05:50.931Z,94110.47
2024-01-06T00:08:23.987Z,94105.41
2024-01-06T00:11:11.916Z,94109.59
2024-01-06T00:13:45.197Z,94102.78
2024-01-06T00:16:31.923Z,94107.81
2024-01-06T00:19:05.225Z,94107.81
2024-01-06T00:21:51.947Z,94107.00
2024-01-06T00:24:32.025Z,94123.88
2024-01-06T00:27:18.962Z,94112.09
2024-01-06T00:29:58.968Z,94117.19
2024-01-06T00:32:45.985Z,94116.38
2024-01-06T00:35:25.936Z,94113.00
2024-01-06T00:38:19.974Z,94112.19
2024-01-06T00:41:06.911Z,94106.34
2024-01-06T00:43:40.067Z,94111.41
2024-01-06T00:46:26.906Z,94104.66
2024-01-06T00:49:07.016Z,94111.41
2024-01-06T00:52:00.968Z,94112.28
2024-01-06T00:54:54.984Z,94104.69
2024-01-06T00:57:42.035Z,94107.22
2024-01-06T01:00:22.927Z,94108.91
2024-01-06T01:03:09.975Z,94102.16
2024-01-06T01:05:50.078Z,94106.38
2024-01-06T01:08:43.951Z,94094.59
2024-01-06T01:11:30.934Z,94096.25
2024-01-06T01:14:11.098Z,94100.53
2024-01-06T01:17:04.921Z,94101.38
2024-01-06T01:19:52.056Z,94098.78
2024-01-06T01:22:31.965Z,94103.03
2024-01-06T01:25:13.926Z,94089.53
2024-01-06T01:28:00.942Z,94087.00
2024-01-06T01:30:41.017Z,94092.06
2024-01-06T01:33:21.203Z,94091.25
2024-01-06T01:36:02.659Z,94092.97
2024-01-06T01:38:43.086Z,94095.50
2024-01-06T01:41:22.960Z,94093.84
2024-01-06T01:44:16.981Z,94096.38
2024-01-06T01:47:10.989Z,94087.13
2024-01-06T01:49:57.962Z,94087.13
2024-01-06T01:52:31.066Z,94091.38
2024-01-06T01:55:17.959Z,94088.84
2024-01-06T01:57:52.075Z,94090.53
2024-01-06T02:00:39.044Z,94099.88
2024-01-06T02:03:13.139Z,94096.53
2024-01-06T02:05:59.940Z,94096.53
2024-01-06T02:08:33.043Z,94096.56
2024-01-06T02:11:19.936Z,94102.50
2024-01-06T02:13:53.055Z,94105.06
2024-01-06T02:16:39.990Z,94103.41
2024-01-06T02:19:18.876Z,94093.34
2024-01-06T02:22:05.974Z,94095.06
2024-01-06T02:24:39.108Z,94089.19
2024-01-06T02:27:26.005Z,94088.41
2024-01-06T02:30:05.972Z,94092.63
2024-01-06T02:32:53.156Z,94085.94
2024-01-06T02:35:33.948Z,94091.88
2024-01-06T02:38:27.960Z,94083.50
2024-01-06T02:41:14.971Z,94086.91
2024-01-06T02:43:48.059Z,94082.72
2024-01-06T02:46:34.961Z,94081.06
2024-01-06T02:49:08.219Z,94076.88
2024-01-06T02:51:55.030Z,94079.47
2024-01-06T02:54:35.009Z,94075.25
2024-01-06T02:57:23.024Z,94072.78
2024-01-06T03:00:02.974Z,94066.06
2024-01-06T03:02:50.977Z,94060.19
2024-01-06T03:05:24.108Z,94056.00
2024-01-06T03:08:18.987Z,94069.50
2024-01-06T03:11:12.978Z,94065.28
2024-01-06T03:14:07.015Z,94061.94
2024-01-06T03:16:54.000Z,94061.94
2024-01-06T03:19:28.562Z,94069.53
2024-01-06T03:22:14.999Z,94067.00
2024-01-06T03:24:48.209Z,94066.16
2024-01-06T03:27:35.004Z,94069.50
2024-01-06T03:30:22.079Z,94064.47
2024-01-06T03:33:02.114Z,94071.19
2024-01-06T03:35:48.996Z,94063.63
2024-01-06T03:38:36.988Z,94057.75
2024-01-06T03:41:17.157Z,94062.81
2024-01-06T03:43:56.992Z,94068.69
2024-01-06T03:46:37.074Z,94061.09
2024-01-06T03:49:17.047Z,94061.94
2024-01-06T03:51:57.225Z,94050.13
2024-01-06T03:54:37.047Z,94051.81
2024-01-06T03:57:17.128Z,94058.56
2024-01-06T03:59:56.995Z,94051.81
2024-01-06T04:02:37.088Z,94048.44
2024-01-06T04:05:17.018Z,94046.75
2024-01-06T04:07:57.119Z,94046.72
2024-01-06T04:10:37.024Z,94043.38
2024-01-06T04:13:24.994Z,94044.22
2024-01-06T04:16:05.005Z,94049.25
2024-01-06T04:18:52.082Z,94051.78
2024-01-06T04:21:25.493Z,94048.44
2024-01-06T04:24:12.145Z,94039.97
2024-01-06T04:26:46.214Z,94033.28
2024-01-06T04:29:33.007Z,94040.81
2024-01-06T04:32:08.588Z,94029.88
2024-01-06T04:34:55.001Z,94039.13
2024-01-06T04:37:28.389Z,94030.72
2024-01-06T04:40:15.997Z,94040.00
2024-01-06T04:43:03.033Z,94032.38
2024-01-06T04:45:58.078Z,94034.06
2024-01-06T04:48:48.091Z,94039.97
2024-01-06T04:51:21.331Z,94041.66
2024-01-06T04:54:08.004Z,94035.75
2024-01-06T04:56:41.116Z,94044.19
2024-01-06T04:59:27.997Z,94042.50
2024-01-06T05:02:02.231Z,94038.25
2024-01-06T05:04:56.042Z,94042.50
2024-01-06T05:07:50.006Z,94037.44
2024-01-06T05:10:37.013Z,94037.44
2024-01-06T05:13:10.110Z,94039.97
2024-01-06T05:15:57.160Z,94035.75
2024-01-06T05:18:30.288Z,94040.78
2024-01-06T05:21:17.097Z,94038.25
2024-01-06T05:23:57.021Z,94030.66
2024-01-06T05:26:51.021Z,94035.72
2024-01-06T05:29:38.054Z,94036.56
2024-01-06T05:32:18.872Z,94035.72
2024-01-06T05:34:59.221Z,94036.53
2024-01-06T05:37:40.227Z,94038.25
2024-01-06T05:40:20.022Z,94037.41
2024-01-06T05:43:14.069Z,94047.50
2024-01-06T05:46:01.076Z,94047.50
2024-01-06T05:48:34.430Z,94049.19
2024-01-06T05:51:21.103Z,94043.28
2024-01-06T05:53:54.184Z,94038.25
2024-01-06T05:56:41.064Z,94043.28
2024-01-06T05:59:14.134Z,94048.31
2024-01-06T06:02:01.116Z,94048.31
2024-01-06T06:04:34.313Z,94052.53
2024-01-06T06:07:21.059Z,94057.59
2024-01-06T06:10:02.229Z,94050.88
2024-01-06T06:12:49.152Z,94058.47
2024-01-06T06:15:29.054Z,94056.75
2024-01-06T06:18:16.234Z,94052.53
2024-01-06T06:20:56.065Z,94057.59
2024-01-06T06:23:50.090Z,94067.72
2024-01-06T06:26:38.773Z,94073.59
2024-01-06T06:29:13.175Z,94075.25
2024-01-06T06:32:00.074Z,94077.78
2024-01-06T06:34:33.235Z,94076.09
2024-01-06T06:37:20.073Z,94076.94
2024-01-06T06:40:00.145Z,94071.88
2024-01-06T06:42:54.070Z,94078.59
2024-01-06T06:45:41.147Z,94076.06
2024-01-06T06:48:14.373Z,94076.91
2024-01-06T06:51:01.102Z,94076.88
2024-01-06T06:53:41.076Z,94077.72
2024-01-06T06:56:28.094Z,94080.25
2024-01-06T06:59:08.043Z,94083.63
2024-01-06T07:01:55.105Z,94075.19
2024-01-06T07:04:28.336Z,94080.25
2024-01-06T07:07:15.079Z,94086.13
2024-01-06T07:09:48.291Z,94087.81
2024-01-06T07:12:35.113Z,94086.13
2024-01-06T07:15:11.270Z,94092.84
2024-01-06T07:17:58.137Z,94084.41
2024-01-06T07:20:31.241Z,94085.25
2024-01-06T07:23:18.070Z,94070.06
2024-01-06T07:25:58.077Z,94066.69
2024-01-06T07:28:45.089Z,94064.19
2024-01-06T07:31:18.894Z,94071.72
2024-01-06T07:34:06.163Z,94082.69
2024-01-06T07:36:42.451Z,94075.94
2024-01-06T07:39:29.103Z,94083.47
2024-01-06T07:42:02.184Z,94076.72
2024-01-06T07:44:49.091Z,94076.72
2024-01-06T07:47:22.182Z,94090.19
2024-01-06T07:50:09.080Z,94080.09
2024-01-06T07:52:49.102Z,94082.63
2024-01-06T07:55:36.082Z,94082.59
2024-01-06T07:58:16.129Z,94086.75
2024-01-06T08:01:03.288Z,94085.88
2024-01-06T08:03:44.197Z,94094.31
2024-01-06T08:06:31.099Z,94096.00
2024-01-06T08:09:11.115Z,94098.50
2024-01-06T08:12:05.118Z,94103.53
2024-01-06T08:14:52.096Z,94100.16
2024-01-06T08:17:25.252Z,94106.88
2024-01-06T08:20:13.102Z,94106.00
2024-01-06T08:22:46.204Z,94101.78
2024-01-06T08:25:33.104Z,94111.00
2024-01-06T08:28:16.130Z,94098.31
2024-01-06T08:31:03.251Z,94099.97
2024-01-06T08:33:43.336Z,94108.38
2024-01-06T08:36:23.168Z,94112.53
2024-01-06T08:39:10.134Z,94118.41
2024-01-06T08:41:43.664Z,94115.81
2024-01-06T08:44:30.142Z,94116.66
2024-01-06T08:47:10.131Z,94118.31
2024-01-06T08:49:57.275Z,94118.22
2024-01-06T08:52:30.507Z,94118.19
2024-01-06T08:55:17.135Z,94116.47
2024-01-06T08:57:57.159Z,94113.06
2024-01-06T09:00:37.303Z,94113.84
2024-01-06T09:03:17.264Z,94111.31
2024-01-06T09:05:57.225Z,94118.88
2024-01-06T09:08:37.102Z,94112.09
2024-01-06T09:11:17.327Z,94106.13
2024-01-06T09:14:00.165Z,94098.50
2024-01-06T09:16:40.304Z,94087.47
2024-01-06T09:19:20.435Z,94087.47
2024-01-06T09:22:00.331Z,94086.59
2024-01-06T09:24:41.198Z,94087.41
2024-01-06T09:27:21.274Z,94086.53
2024-01-06T09:30:01.180Z,94080.59
2024-01-06T09:32:41.544Z,94083.09
2024-01-06T09:35:28.102Z,94084.78
2024-01-06T09:38:01.269Z,94083.91
2024-01-06T09:40:52.147Z,94076.28
2024-01-06T09:43:32.139Z,94082.19
2024-01-06T09:46:25.135Z,94083.84
2024-01-06T09:48:59.919Z,94079.59
2024-01-06T09:51:48.212Z,94075.34
2024-01-06T09:54:22.268Z,94079.59
2024-01-06T09:57:11.132Z,94069.47
2024-01-06T09:59:45.134Z,94070.31
2024-01-06T10:02:33.159Z,94075.41
2024-01-06T10:05:13.249Z,94068.66
2024-01-06T10:08:07.158Z,94064.50
2024-01-06T10:10:54.149Z,94060.25
2024-01-06T10:13:34.160Z,94062.75
2024-01-06T10:16:28.182Z,94055.97
2024-01-06T10:19:15.315Z,94052.53
2024-01-06T10:21:55.270Z,94050.84
2024-01-06T10:24:45.263Z,94050.84
2024-01-06T10:27:18.737Z,94049.19
2024-01-06T10:30:05.206Z,94050.00
2024-01-06T10:32:40.396Z,94048.28
2024-01-06T10:35:27.227Z,94045.72
2024-01-06T10:38:02.267Z,94036.44
2024-01-06T10:41:15.227Z,94039.81
2024-01-06T10:43:57.165Z,94035.56
2024-01-06T10:46:52.170Z,94030.44
2024-01-06T10:49:39.478Z,94026.19
2024-01-06T10:52:14.327Z,94022.78
2024-01-06T10:55:04.286Z,94023.56
2024-01-06T10:57:38.370Z,94021.84
2024-01-06T11:00:25.205Z,94016.72
2024-01-06T11:03:00.496Z,94014.13
2024-01-06T11:05:56.227Z,94009.00
2024-01-06T11:08:57.163Z,94003.06
2024-01-06T11:11:52.157Z,93993.69
2024-01-06T11:14:53.183Z,93995.34
2024-01-06T11:18:03.233Z,93985.25
2024-01-06T11:20:43.214Z,93992.84
2024-01-06T11:23:39.690Z,94008.00
2024-01-06T11:26:26.231Z,93993.59
2024-01-06T11:28:59.868Z,93996.16
2024-01-06T11:31:46.345Z,93998.69
2024-01-06T11:34:26.328Z,93991.06
2024-01-06T11:37:06.236Z,93984.28
2024-01-06T11:39:49.333Z,93983.41
2024-01-06T11:42:29.207Z,93981.69
2024-01-06T11:45:26.240Z,93990.19
2024-01-06T11:48:25.063Z,93995.28
2024-01-06T11:51:12.202Z,93996.97
2024-01-06T11:53:45.306Z,94005.47
2024-01-06T11:56:32.173Z,94008.03
2024-01-06T11:59:12.267Z,93999.59
2024-01-06T12:02:06.194Z,94003.84
2024-01-06T12:05:01.251Z,93997.13
2024-01-06T12:07:36.127Z,94000.56
2024-01-06T12:10:23.252Z,93995.47
2024-01-06T12:13:10.526Z,94002.25
2024-01-06T12:16:04.286Z,93999.72
2024-01-06T12:18:58.299Z,94006.50
2024-01-06T12:21:45.261Z,94000.59
2024-01-06T12:24:33.225Z,94002.34
2024-01-06T12:27:29.247Z,94003.22
2024-01-06T12:30:28.303Z,93998.16
2024-01-06T12:33:15.420Z,94001.56
2024-01-06T12:35:56.016Z,93995.66
2024-01-06T12:38:37.260Z,93999.91
2024-01-06T12:41:18.302Z,94004.16
2024-01-06T12:43:58.203Z,93997.41
2024-01-06T12:46:45.298Z,93994.03
2024-01-06T12:49:25.283Z,94001.69
2024-01-06T12:52:05.463Z,94003.41
2024-01-06T12:54:47.918Z,94003.41
2024-01-06T12:57:35.307Z,94000.06
2024-01-06T13:00:11.918Z,94001.81
2024-01-06T13:02:58.232Z,93997.59
2024-01-06T13:05:38.327Z,93999.31
2024-01-06T13:08:25.232Z,93996.81
2024-01-06T13:11:05.261Z,93995.94
2024-01-06T13:13:45.408Z,94004.44
2024-01-06T13:16:25.288Z,94005.28
2024-01-06T13:19:05.910Z,94002.78
2024-01-06T13:21:47.518Z,94006.16
2024-01-06T13:24:27.351Z,94009.56
2024-01-06T13:27:10.276Z,93996.06
2024-01-06T13:29:50.312Z,94004.56
2024-01-06T13:32:30.278Z,94005.44
2024-01-06T13:35:19.216Z,94002.97
2024-01-06T13:38:06.262Z,94003.81
2024-01-06T13:40:46.285Z,94004.69
2024-01-06T13:43:40.258Z,94006.38
2024-01-06T13:46:34.241Z,94009.75
2024-01-06T13:49:21.327Z,94008.09
2024-01-06T13:52:01.293Z,94007.28
2024-01-06T13:54:56.332Z,94012.34
2024-01-06T13:57:43.245Z,94013.22
2024-01-06T14:00:20.997Z,94013.22
2024-01-06T14:03:08.379Z,94018.28
2024-01-06T14:05:41.466Z,94014.03
2024-01-06T14:08:28.294Z,94010.69
2024-01-06T14:11:01.336Z,94020.81
2024-01-06T14:13:48.263Z,94021.66
2024-01-06T14:16:21.924Z,94027.66
2024-01-06T14:19:09.343Z,94020.94
2024-01-06T14:21:49.331Z,94030.25
2024-01-06T14:24:36.254Z,94030.19
2024-01-06T14:27:09.390Z,94026.81
2024-01-06T14:29:56.289Z,94028.53
2024-01-06T14:32:37.318Z,94026.00
2024-01-06T14:35:24.303Z,94025.16
2024-01-06T14:38:11.247Z,94031.91
2024-01-06T14:40:44.981Z,94031.91
2024-01-06T14:43:31.259Z,94027.69
2024-01-06T14:46:26.253Z,94034.47
2024-01-06T14:49:13.408Z,94022.66
2024-01-06T14:51:47.801Z,94031.09
2024-01-06T14:54:38.363Z,94024.34
2024-01-06T14:57:12.419Z,94026.06
2024-01-06T14:59:59.316Z,94031.13
2024-01-06T15:02:39.269Z,94030.28
2024-01-06T15:05:26.349Z,94034.50
2024-01-06T15:07:59.612Z,94033.66
2024-01-06T15:10:47.283Z,94040.38
2024-01-06T15:13:20.915Z,94037.03
2024-01-06T15:16:07.376Z,94036.19
2024-01-06T15:18:41.504Z,94037.88
2024-01-06T15:21:30.350Z,94041.25
2024-01-06T15:24:10.281Z,94041.25
2024-01-06T15:27:00.279Z,94045.50
2024-01-06T15:29:40.299Z,94031.13
2024-01-06T15:32:34.347Z,94036.19
2024-01-06T15:35:28.302Z,94034.53
2024-01-06T15:38:15.290Z,94033.66
2024-01-06T15:40:55.344Z,94032.88
2024-01-06T15:43:49.317Z,94040.47
2024-01-06T15:46:36.337Z,94033.72
2024-01-06T15:49:17.407Z,94036.25
2024-01-06T15:52:15.278Z,94030.41
2024-01-06T15:55:09.396Z,94033.75
2024-01-06T15:57:56.341Z,94031.25
2024-01-06T16:00:29.463Z,94026.16
2024-01-06T16:03:16.463Z,94021.16
2024-01-06T16:05:51.279Z,94021.97
2024-01-06T16:08:38.329Z,94027.88
2024-01-06T16:11:12.480Z,94025.34
2024-01-06T16:13:59.334Z,94021.97
2024-01-06T16:16:36.466Z,94019.44
2024-01-06T16:19:23.570Z,94017.75
2024-01-06T16:22:07.104Z,94021.97
2024-01-06T16:25:01.373Z,94016.91
2024-01-06T16:27:34.436Z,94021.16
2024-01-06T16:30:21.495Z,94024.53
2024-01-06T16:33:02.499Z,94020.28
2024-01-06T16:35:56.285Z,94027.06
2024-01-06T16:38:50.344Z,94024.53
2024-01-06T16:41:37.346Z,94022.84
2024-01-06T16:44:18.308Z,94025.38
2024-01-06T16:47:12.349Z,94022.88
2024-01-06T16:49:59.305Z,94017.78
2024-01-06T16:52:32.456Z,94020.31
2024-01-06T16:55:19.342Z,94016.97
2024-01-06T16:57:59.334Z,94020.31
2024-01-06T17:00:53.535Z,94017.81
2024-01-06T17:03:40.414Z,94020.34
2024-01-06T17:06:13.450Z,94020.34
2024-01-06T17:09:00.310Z,94016.97
2024-01-06T17:11:40.341Z,94022.03
2024-01-06T17:14:27.341Z,94017.00
2024-01-06T17:17:00.413Z,94016.19
2024-01-06T17:19:47.417Z,94014.44
2024-01-06T17:22:27.330Z,94022.06
2024-01-06T17:25:21.351Z,94019.53
2024-01-06T17:28:08.382Z,94017.00
2024-01-06T17:30:41.593Z,94015.31
2024-01-06T17:33:28.419Z,94022.09
2024-01-06T17:36:09.345Z,94019.53
2024-01-06T17:38:57.351Z,94012.78
2024-01-06T17:41:33.804Z,94017.03
2024-01-06T17:44:31.383Z,94011.13
2024-01-06T17:47:26.368Z,94008.59
2024-01-06T17:50:13.351Z,94009.41
2024-01-06T17:52:53.339Z,94012.78
2024-01-06T17:55:40.334Z,94009.41
2024-01-06T17:58:20.355Z,94007.72
2024-01-06T18:01:07.458Z,94007.72
2024-01-06T18:03:40.565Z,94008.59
2024-01-06T18:06:28.428Z,94011.13
2024-01-06T18:09:02.365Z,94010.28
2024-01-06T18:11:50.345Z,94016.22
2024-01-06T18:14:24.423Z,94017.91
2024-01-06T18:17:11.383Z,94023.84
2024-01-06T18:19:44.511Z,94021.34
2024-01-06T18:22:31.348Z,94025.63
2024-01-06T18:25:11.340Z,94033.28
2024-01-06T18:28:05.388Z,94031.66
2024-01-06T18:31:01.471Z,94031.69
2024-01-06T18:33:55.423Z,94030.06
2024-01-06T18:36:42.436Z,94030.94
2024-01-06T18:39:15.487Z,94036.03
2024-01-06T18:42:02.375Z,94036.06
2024-01-06T18:44:42.405Z,94037.75
2024-01-06T18:47:36.390Z,94035.22
2024-01-06T18:50:26.387Z,94034.44
2024-01-06T18:53:06.414Z,94033.56
2024-01-06T18:55:53.352Z,94040.34
2024-01-06T18:58:33.352Z,94036.97
2024-01-06T19:01:27.461Z,94027.72
2024-01-06T19:04:14.450Z,94036.19
2024-01-06T19:06:47.517Z,94027.75
2024-01-06T19:09:36.411Z,94032.81
2024-01-06T19:12:09.531Z,94033.72
2024-01-06T19:14:56.366Z,94033.72
2024-01-06T19:17:29.548Z,94032.94
2024-01-06T19:20:16.381Z,94032.09
2024-01-06T19:23:06.038Z,94032.94
2024-01-06T19:25:56.392Z,94033.81
2024-01-06T19:28:36.387Z,94028.81
2024-01-06T19:31:23.423Z,94028.81
2024-01-06T19:34:03.484Z,94033.88
2024-01-06T19:36:50.405Z,94038.94
2024-01-06T19:39:23.542Z,94040.66
2024-01-06T19:42:11.422Z,94033.94
2024-01-06T19:45:05.476Z,94036.47
2024-01-06T19:47:59.551Z,94031.44
2024-01-06T19:50:46.434Z,94029.75
2024-01-06T19:53:19.493Z,94039.03
2024-01-06T19:56:09.439Z,94032.34
2024-01-06T19:58:42.505Z,94032.34
2024-01-06T20:01:29.516Z,94034.03
2024-01-06T20:04:09.503Z,94033.22
2024-01-06T20:06:56.493Z,94027.31
2024-01-06T20:09:29.583Z,94031.53
2024-01-06T20:12:16.361Z,94029.03
2024-01-06T20:14:49.532Z,94028.22
2024-01-06T20:17:36.455Z,94029.06
2024-01-06T20:20:11.492Z,94024.88
2024-01-06T20:22:58.400Z,94020.72
2024-01-06T20:25:31.549Z,94020.72
2024-01-06T20:28:18.420Z,94019.84
2024-01-06T20:30:58.516Z,94017.34
2024-01-06T20:33:52.508Z,94019.88
2024-01-06T20:36:46.498Z,94021.56
2024-01-06T20:39:33.407Z,94021.59
2024-01-06T20:42:14.441Z,94018.25
2024-01-06T20:45:09.409Z,94019.94
2024-01-06T20:48:03.468Z,94015.75
2024-01-06T20:50:57.398Z,94018.28
2024-01-06T20:53:44.464Z,94019.97
2024-01-06T20:56:24.408Z,94021.66
2024-01-06T20:59:14.439Z,94017.47
2024-01-06T21:01:49.699Z,94007.41
2024-01-06T21:04:36.413Z,94015.81
2024-01-06T21:07:16.470Z,94015.84
2024-01-06T21:10:12.450Z,94016.69
2024-01-06T21:12:59.528Z,94011.66
2024-01-06T21:15:32.624Z,94016.72
2024-01-06T21:18:19.469Z,94013.34
2024-01-06T21:20:52.546Z,94010.84
2024-01-06T21:23:45.182Z,94011.66
2024-01-06T21:26:29.479Z,94013.38
2024-01-06T21:29:26.460Z,94007.50
2024-01-06T21:32:20.445Z,94008.34
2024-01-06T21:35:14.431Z,94009.19
2024-01-06T21:38:11.438Z,94009.19
2024-01-06T21:40:58.433Z,93996.56
2024-01-06T21:43:31.511Z,94008.34
2024-01-06T21:46:25.457Z,94010.91
2024-01-06T21:49:12.462Z,94007.53
2024-01-06T21:51:59.565Z,94005.88
2024-01-06T21:54:46.457Z,94009.22
2024-01-06T21:57:19.986Z,94011.75
2024-01-06T22:00:08.181Z,94005.84
2024-01-06T22:02:49.457Z,94010.91
2024-01-06T22:05:36.516Z,94014.28
2024-01-06T22:08:09.524Z,94014.28
2024-01-06T22:10:56.434Z,94006.72
2024-01-06T22:13:36.430Z,94005.88
2024-01-06T22:16:23.432Z,94005.03
2024-01-06T22:19:03.510Z,94011.75
2024-01-06T22:21:51.457Z,94007.56
2024-01-06T22:24:33.496Z,94010.94
2024-01-06T22:27:27.490Z,94009.25
2024-01-06T22:30:15.532Z,94000.88
2024-01-06T22:32:57.477Z,94003.41
2024-01-06T22:35:44.451Z,94002.56
2024-01-06T22:38:24.446Z,94000.88
2024-01-06T22:41:11.443Z,93996.66
2024-01-06T22:43:51.464Z,93998.34
2024-01-06T22:46:38.559Z,94000.03
2024-01-06T22:49:18.473Z,93994.16
2024-01-06T22:51:58.659Z,94001.72
2024-01-06T22:54:38.468Z,93999.19
2024-01-06T22:57:18.455Z,94015.16
2024-01-06T22:59:58.438Z,94009.31
2024-01-06T23:02:45.435Z,94010.13
2024-01-06T23:05:25.474Z,94009.31
2024-01-06T23:08:19.509Z,94019.38
2024-01-06T23:11:06.448Z,94021.88
2024-01-06T23:13:39.537Z,94017.69
2024-01-06T23:16:26.543Z,94009.28
2024-01-06T23:19:01.019Z,94016.84
2024-01-06T23:21:47.500Z,94012.66
2024-01-06T23:24:21.553Z,94006.75
2024-01-06T23:27:01.896Z,94003.41
2024-01-06T23:29:42.515Z,94012.66
2024-01-06T23:32:22.594Z,94007.59
2024-01-06T23:35:09.523Z,94005.94
2024-01-06T23:37:49.452Z,94002.56
2024-01-06T23:40:36.433Z,94007.63
2024-01-06T23:43:11.544Z,94004.25
2024-01-06T23:46:05.459Z,94007.59
2024-01-06T23:48:52.506Z,94007.59
2024-01-06T23:51:33.476Z,94005.91
2024-01-06T23:54:27.467Z,94003.41
2024-01-06T23:57:14.452Z,94010.13
2024-01-06T23:59:47.579Z,94007.59
